This is the latest recevied weather packets stored in our database for station/object W0CHP-13. If no packets are shown the sender has not sent any weather packets the latest 10 day(s).
| Time | Temp. | Humidity | Pressure | Rain* | Wind** | Luminosity | Snow |
|---|---|---|---|---|---|---|---|
| 1788458116 | 26.67° C | 75% | 1010.3 hPa | - | - | 357 W/m² | - |
| 1788457516 | 26.67° C | 77% | 1010.3 hPa | - | - | 320 W/m² | - |
| 1788456915 | 26.11° C | 77% | 1010.6 hPa | - | - | 286 W/m² | - |
| 1788456318 | 25.56° C | 78% | 1010.3 hPa | - | - | 291 W/m² | - |
| 1788455717 | 25.56° C | 80% | 1010.6 hPa | - | - | 376 W/m² | - |
| 1788455115 | 25.56° C | 79% | 1010.6 hPa | - | - | 367 W/m² | - |
| 1788454517 | 25° C | 82% | 1010.3 hPa | - | - | 312 W/m² | - |
| 1788453915 | 25° C | 83% | 1010.3 hPa | - | - | 235 W/m² | - |
| 1788453317 | 25° C | 84% | 1010.6 hPa | - | - | 707 W/m² | - |
| 1788452716 | 23.89° C | 86% | 1010.6 hPa | - | - | 350 W/m² | - |
| 1788452119 | 23.89° C | 86% | 1010.3 hPa | - | - | 258 W/m² | - |
| 1788451517 | 23.33° C | 87% | 1010.6 hPa | - | - | 166 W/m² | - |
| 1788450916 | 22.78° C | 87% | 1011 hPa | - | - | 91 W/m² | - |
| 1788450317 | 22.78° C | 86% | 1010.6 hPa | - | - | 77 W/m² | - |
| 1788449714 | 22.78° C | 85% | 1011 hPa | - | - | 75 W/m² | - |
| 1788449116 | 22.78° C | 85% | 1011 hPa | - | - | 66 W/m² | - |
| 1788448518 | 23.33° C | 83% | 1011 hPa | - | - | 41 W/m² | - |
| 1788447915 | 23.33° C | 82% | 1011 hPa | - | - | 27 W/m² | - |
| 1788447318 | 23.33° C | 80% | 1010.6 hPa | - | - | 35 W/m² | - |
| 1788446716 | 23.33° C | 80% | 1010.6 hPa | - | - | 41 W/m² | - |
| 1788446118 | 23.33° C | 79% | 1010.3 hPa | - | - | 71 W/m² | - |
| 1788445516 | 23.33° C | 80% | 1010.6 hPa | - | - | 107 W/m² | - |
| 1788444918 | 23.33° C | 79% | 1010.6 hPa | - | - | 46 W/m² | - |
| 1788444316 | 23.33° C | 79% | 1011 hPa | - | - | 71 W/m² | - |
| 1788443715 | 22.78° C | 80% | 1011.3 hPa | - | - | 62 W/m² | - |
* Rain since midnight (hover to see other rain measurements)
** Current wind speed in m/s (hover to see current wind gust speed)